Khairpur Tamewali Weather



Khairpur Tamewali's Current Weather

Temprature 42.179o clear sky

clear sky

Rain: 0 %

Min Temprature42.179o
Max Temprature42.179o
Humidity13
Wind Speed3.06 m/h
Sun Rise05:56:57
Sun Set18:13:57
Current Time: 18-Sep-2019 17:17:39
Lat/Lon: 29.58, 72.25




Khairpur Tamewali's Geo Location



Khairpur Tamewali's Weather Forecast

Time Overall Temp Min Temp Max Temp Humidity Wind Speed Rain
18-Sep-2019 (Wed)
20:00:00 clear sky 35.430 35.427 35.430 20 2.87 m/h 0 %
23:00:00 clear sky 32.940 32.938 32.940 21 2.41 m/h 0 %
19-Sep-2019 (Thu)
02:00:00 clear sky 31.050 31.050 31.050 24 2.46 m/h 0 %
05:00:00 clear sky 28.550 28.550 28.550 26 1.34 m/h 0 %
08:00:00 clear sky 33.704 33.704 33.704 20 2.14 m/h 0 %
11:00:00 clear sky 40.650 40.650 40.650 13 0.96 m/h 0 %
14:00:00 clear sky 43.150 43.150 43.150 9 3.68 m/h 0 %
17:00:00 clear sky 41.750 41.750 41.750 11 4.83 m/h 0 %
20:00:00 clear sky 36.550 36.550 36.550 14 3.6 m/h 0 %
23:00:00 clear sky 35.650 35.650 35.650 29 7.53 m/h 0 %
20-Sep-2019 (Fri)
02:00:00 clear sky 33.650 33.650 33.650 36 5.89 m/h 0 %
05:00:00 clear sky 32.150 32.150 32.150 46 5.75 m/h 0 %
08:00:00 clear sky 33.350 33.350 33.350 46 7.27 m/h 0 %
11:00:00 clear sky 38.663 38.663 38.663 29 5.74 m/h 0 %
14:00:00 clear sky 40.550 40.550 40.550 22 3.77 m/h 0 %
17:00:00 few clouds 38.950 38.950 38.950 25 5.82 m/h 0 %
20:00:00 scattered clouds 35.250 35.250 35.250 31 3.74 m/h 0 %
23:00:00 few clouds 33.550 33.550 33.550 33 3.15 m/h 0 %
21-Sep-2019 (Sat)
02:00:00 clear sky 32.650 32.650 32.650 40 3.95 m/h 0 %
05:00:00 clear sky 31.606 31.606 31.606 46 4.1 m/h 0 %
08:00:00 clear sky 34.150 34.150 34.150 40 4.58 m/h 0 %
11:00:00 clear sky 37.963 37.963 37.963 30 3.06 m/h 0 %
14:00:00 broken clouds 38.650 38.650 38.650 27 2.41 m/h 0 %
17:00:00 scattered clouds 39.250 39.250 39.250 24 2.86 m/h 0 %
20:00:00 clear sky 35.550 35.550 35.550 28 4.5 m/h 0 %
23:00:00 clear sky 33.563 33.563 33.563 32 3.93 m/h 0 %
22-Sep-2019 (Sun)
02:00:00 clear sky 32.343 32.343 32.343 43 3.2 m/h 0 %
05:00:00 clear sky 31.451 31.451 31.451 43 2.73 m/h 0 %
08:00:00 clear sky 34.265 34.265 34.265 39 4.18 m/h 0 %
11:00:00 clear sky 38.000 38.000 38.000 30 3.23 m/h 0 %
14:00:00 few clouds 39.950 39.950 39.950 24 2.98 m/h 0 %
17:00:00 scattered clouds 39.050 39.050 39.050 25 5.19 m/h 0 %
20:00:00 clear sky 35.996 35.996 35.996 29 5.06 m/h 0 %
23:00:00 clear sky 34.250 34.250 34.250 34 3.7 m/h 0 %
23-Sep-2019 (Mon)
02:00:00 clear sky 33.250 33.250 33.250 38 4.52 m/h 0 %
05:00:00 clear sky 31.750 31.750 31.750 44 4.27 m/h 0 %
08:00:00 clear sky 33.050 33.050 33.050 46 4.69 m/h 0 %
11:00:00 clear sky 37.150 37.150 37.150 33 3.12 m/h 0 %
14:00:00 clear sky 39.650 39.650 39.650 26 3.94 m/h 0 %
17:00:00 scattered clouds 37.365 37.365 37.365 30 3.28 m/h 0 %

Famous Cities (61)